createdAt,value
2023-05-05T00:00:10.496Z,86.33
2023-05-05T00:01:10.500Z,86.08
2023-05-05T00:02:10.529Z,85.82
2023-05-05T00:03:10.536Z,85.72
2023-05-05T00:04:10.526Z,86.22
2023-05-05T00:05:10.491Z,86.22
2023-05-05T00:06:10.491Z,86.94
2023-05-05T00:07:10.489Z,86.63
2023-05-05T00:08:10.488Z,86.94
2023-05-05T00:09:10.489Z,86.63
2023-05-05T00:10:10.537Z,86.63
2023-05-05T00:11:10.482Z,86.02
2023-05-05T00:12:10.712Z,85.72
2023-05-05T00:13:10.580Z,85.62
2023-05-05T00:14:10.476Z,86.22
2023-05-05T00:15:10.475Z,85.72
2023-05-05T00:16:10.475Z,85.31
2023-05-05T00:17:10.533Z,85.96
2023-05-05T00:18:10.468Z,85.52
2023-05-05T00:19:10.470Z,85.76
2023-05-05T00:20:10.595Z,85.86
2023-05-05T00:21:10.476Z,86.16
2023-05-05T00:22:10.470Z,86.37
2023-05-05T00:23:10.490Z,86.27
2023-05-05T00:24:10.462Z,86.02
2023-05-05T00:25:10.468Z,86.57
2023-05-05T00:26:10.465Z,86.43
2023-05-05T00:27:10.457Z,86.83
2023-05-05T00:28:10.470Z,86.47
2023-05-05T00:29:10.457Z,87.18
2023-05-05T00:30:10.510Z,87.59
2023-05-05T00:31:10.538Z,87.18
2023-05-05T00:32:10.453Z,86.57
2023-05-05T00:33:10.454Z,86.47
2023-05-05T00:34:10.456Z,86.16
2023-05-05T00:35:10.453Z,86.31
2023-05-05T00:36:10.453Z,86.71
2023-05-05T00:37:10.451Z,86.65
2023-05-05T00:38:10.448Z,86.04
2023-05-05T00:39:10.453Z,86.65
2023-05-05T00:40:10.548Z,86.65
2023-05-05T00:41:10.445Z,87.67
2023-05-05T00:42:10.445Z,87.98
2023-05-05T00:43:10.438Z,87.87
2023-05-05T00:44:10.459Z,87.98
2023-05-05T00:45:10.439Z,87.67
2023-05-05T00:46:10.461Z,86.65
2023-05-05T00:47:10.452Z,87.06
2023-05-05T00:48:10.487Z,87.16
2023-05-05T00:49:10.498Z,86.96
2023-05-05T00:50:10.436Z,86.55
2023-05-05T00:51:10.432Z,87.06
2023-05-05T00:52:10.458Z,86.86
2023-05-05T00:53:10.429Z,86.96
2023-05-05T00:54:10.433Z,87.00
2023-05-05T00:55:10.428Z,87.00
2023-05-05T00:56:10.421Z,87.20
2023-05-05T00:57:10.422Z,87.51
2023-05-05T00:58:10.421Z,87.65
2023-05-05T00:59:10.419Z,87.85
2023-05-05T01:00:10.595Z,88.46
2023-05-05T01:01:10.467Z,88.57
2023-05-05T01:02:10.414Z,88.16
2023-05-05T01:03:10.510Z,88.26
2023-05-05T01:04:10.410Z,88.87
2023-05-05T01:05:10.408Z,88.87
2023-05-05T01:06:10.413Z,88.26
2023-05-05T01:07:10.404Z,88.77
2023-05-05T01:08:10.404Z,87.85
2023-05-05T01:09:10.404Z,87.96
2023-05-05T01:10:19.569Z,87.96
2023-05-05T01:11:10.402Z,88.46
2023-05-05T01:12:10.592Z,88.12
2023-05-05T01:13:10.469Z,88.06
2023-05-05T01:14:10.394Z,87.65
2023-05-05T01:15:10.389Z,87.35
2023-05-05T01:16:10.450Z,87.96
2023-05-05T01:17:10.402Z,87.85
2023-05-05T01:18:10.385Z,88.67
2023-05-05T01:19:10.389Z,88.77
2023-05-05T01:20:10.527Z,88.87
2023-05-05T01:21:10.385Z,88.81
2023-05-05T01:22:10.385Z,88.26
2023-05-05T01:23:10.381Z,88.40
2023-05-05T01:24:10.370Z,87.96
2023-05-05T01:25:10.384Z,88.16
2023-05-05T01:26:10.368Z,88.46
2023-05-05T01:27:10.370Z,88.31
2023-05-05T01:28:10.368Z,88.16
2023-05-05T01:29:10.364Z,87.65
2023-05-05T01:30:10.512Z,87.65
2023-05-05T01:31:10.388Z,86.98
2023-05-05T01:32:10.378Z,86.27
2023-05-05T01:33:10.366Z,87.08
2023-05-05T01:34:10.356Z,86.88
2023-05-05T01:35:10.354Z,87.38
2023-05-05T01:36:10.358Z,87.69
2023-05-05T01:37:10.368Z,87.63
2023-05-05T01:38:10.356Z,87.94
2023-05-05T01:39:10.460Z,87.94
2023-05-05T01:40:10.350Z,88.04
2023-05-05T01:41:10.343Z,88.96
2023-05-05T01:42:10.337Z,88.45
2023-05-05T01:43:10.339Z,88.96
2023-05-05T01:44:10.336Z,88.14
2023-05-05T01:45:10.335Z,87.94
2023-05-05T01:46:10.373Z,87.94
2023-05-05T01:47:10.329Z,88.75
2023-05-05T01:48:10.345Z,88.85
2023-05-05T01:49:10.336Z,88.04
2023-05-05T01:50:10.472Z,87.63
2023-05-05T01:51:10.325Z,88.04
2023-05-05T01:52:10.319Z,87.53
2023-05-05T01:53:10.318Z,87.98
2023-05-05T01:54:10.343Z,88.08
2023-05-05T01:55:10.311Z,88.08
2023-05-05T01:56:10.311Z,87.77
2023-05-05T01:57:10.312Z,87.67
2023-05-05T01:58:10.311Z,87.67
2023-05-05T01:59:10.308Z,87.88
2023-05-05T02:00:10.510Z,87.67
2023-05-05T02:01:10.349Z,87.98
2023-05-05T02:02:10.342Z,87.98
2023-05-05T02:03:10.399Z,87.98
2023-05-05T02:04:10.321Z,87.71
2023-05-05T02:05:10.293Z,88.12
2023-05-05T02:06:10.300Z,88.84
2023-05-05T02:07:10.293Z,88.43
2023-05-05T02:08:10.288Z,88.53
2023-05-05T02:09:10.291Z,88.73
2023-05-05T02:10:10.452Z,88.73
2023-05-05T02:11:10.281Z,89.55
2023-05-05T02:12:10.287Z,89.55
2023-05-05T02:13:10.381Z,89.65
2023-05-05T02:14:10.296Z,88.84
2023-05-05T02:15:10.276Z,88.93
2023-05-05T02:16:10.280Z,88.53
2023-05-05T02:17:10.476Z,88.47
2023-05-05T02:18:10.271Z,89.08
2023-05-05T02:19:10.283Z,88.37
2023-05-05T02:20:10.373Z,89.53
2023-05-05T02:21:10.263Z,90.35
2023-05-05T02:22:10.265Z,90.51
2023-05-05T02:23:10.268Z,90.66
2023-05-05T02:24:10.280Z,90.31
2023-05-05T02:25:10.259Z,89.08
2023-05-05T02:26:10.260Z,89.02
2023-05-05T02:27:10.252Z,88.31
2023-05-05T02:28:10.252Z,88.00
2023-05-05T02:29:10.251Z,88.10
2023-05-05T02:30:10.446Z,87.63
2023-05-05T02:31:10.300Z,88.35
2023-05-05T02:32:10.245Z,88.51
2023-05-05T02:33:10.257Z,88.51
2023-05-05T02:34:10.239Z,88.92
2023-05-05T02:35:10.235Z,89.32
2023-05-05T02:36:10.264Z,88.04
2023-05-05T02:37:10.231Z,87.70
2023-05-05T02:38:10.235Z,87.70
2023-05-05T02:39:10.228Z,88.04
2023-05-05T02:40:10.541Z,88.14
2023-05-05T02:41:10.230Z,88.24
2023-05-05T02:42:10.245Z,88.24
2023-05-05T02:43:10.274Z,88.85
2023-05-05T02:44:10.219Z,89.23
2023-05-05T02:45:10.215Z,89.12
2023-05-05T02:46:10.248Z,88.61
2023-05-05T02:47:10.214Z,88.76
2023-05-05T02:48:10.208Z,89.12
2023-05-05T02:49:10.209Z,89.02
2023-05-05T02:50:10.513Z,89.12
2023-05-05T02:51:10.210Z,88.71
2023-05-05T02:52:10.221Z,88.96
2023-05-05T02:53:10.193Z,89.37
2023-05-05T02:54:10.193Z,89.06
2023-05-05T02:55:10.191Z,89.06
2023-05-05T02:56:10.192Z,89.17
2023-05-05T02:57:10.201Z,89.26
2023-05-05T02:58:10.188Z,89.78
2023-05-05T02:59:10.209Z,89.37
2023-05-05T03:00:10.318Z,88.96
2023-05-05T03:01:10.191Z,89.06
2023-05-05T03:02:10.191Z,89.78
2023-05-05T03:03:10.334Z,89.37
2023-05-05T03:04:10.190Z,89.98
2023-05-05T03:05:10.176Z,90.23
2023-05-05T03:06:10.171Z,89.78
2023-05-05T03:07:10.182Z,90.33
2023-05-05T03:08:10.183Z,90.29
2023-05-05T03:09:10.159Z,91.92
2023-05-05T03:10:10.304Z,91.61
2023-05-05T03:11:10.158Z,91.61
2023-05-05T03:12:10.155Z,92.13
2023-05-05T03:13:10.191Z,92.02
2023-05-05T03:14:10.154Z,92.23
2023-05-05T03:15:10.161Z,92.13
2023-05-05T03:16:10.193Z,91.37
2023-05-05T03:17:10.491Z,91.41
2023-05-05T03:18:10.136Z,91.27
2023-05-05T03:19:10.134Z,91.98
2023-05-05T03:20:10.161Z,91.67
2023-05-05T03:21:10.137Z,92.08
2023-05-05T03:22:10.127Z,91.72
2023-05-05T03:23:10.129Z,92.08
2023-05-05T03:24:10.152Z,91.57
2023-05-05T03:25:10.122Z,91.98
2023-05-05T03:26:10.119Z,92.08
2023-05-05T03:27:10.121Z,92.39
2023-05-05T03:28:10.122Z,92.19
2023-05-05T03:29:10.117Z,91.98
2023-05-05T03:30:10.281Z,91.78
2023-05-05T03:31:10.106Z,92.29
2023-05-05T03:32:10.115Z,92.29
2023-05-05T03:33:10.126Z,92.19
2023-05-05T03:34:10.107Z,91.88
2023-05-05T03:35:10.092Z,92.29
2023-05-05T03:36:10.100Z,92.39
2023-05-05T03:37:10.090Z,92.49
2023-05-05T03:38:10.117Z,93.21
2023-05-05T03:39:10.086Z,93.00
2023-05-05T03:40:10.241Z,93.00
2023-05-05T03:41:10.087Z,93.00
2023-05-05T03:42:10.096Z,92.39
2023-05-05T03:43:10.085Z,91.88
2023-05-05T03:44:10.079Z,91.16
2023-05-05T03:45:10.076Z,91.67
2023-05-05T03:46:10.158Z,91.67
2023-05-05T03:47:10.067Z,91.27
2023-05-05T03:48:10.129Z,92.08
2023-05-05T03:49:10.063Z,91.67
2023-05-05T03:50:10.164Z,90.70
2023-05-05T03:51:10.065Z,90.59
2023-05-05T03:52:10.061Z,90.49
2023-05-05T03:53:10.053Z,90.19
2023-05-05T03:54:10.051Z,90.70
2023-05-05T03:55:10.050Z,91.31
2023-05-05T03:56:10.070Z,91.52
2023-05-05T03:57:10.064Z,92.02
2023-05-05T03:58:10.050Z,92.13
2023-05-05T03:59:10.056Z,91.82
2023-05-05T04:00:10.082Z,91.41
2023-05-05T04:01:10.047Z,91.31
2023-05-05T04:02:10.066Z,90.90
2023-05-05T04:03:10.301Z,91.20
2023-05-05T04:04:10.069Z,92.13
2023-05-05T04:05:10.036Z,91.61
2023-05-05T04:06:10.054Z,92.13
2023-05-05T04:07:10.026Z,91.72
2023-05-05T04:08:10.035Z,91.86
2023-05-05T04:09:10.032Z,92.27
2023-05-05T04:10:10.165Z,92.68
2023-05-05T04:11:10.014Z,93.19
2023-05-05T04:12:10.032Z,93.70
2023-05-05T04:13:10.074Z,93.40
2023-05-05T04:14:10.008Z,93.60
2023-05-05T04:15:10.007Z,93.76
2023-05-05T04:16:10.034Z,93.86
2023-05-05T04:17:10.006Z,93.91
2023-05-05T04:18:10.087Z,93.96
2023-05-05T04:19:10.010Z,93.86
2023-05-05T04:20:10.298Z,94.07
2023-05-05T04:21:09.991Z,93.86
2023-05-05T04:22:10.241Z,93.76
2023-05-05T04:23:09.985Z,93.86
2023-05-05T04:24:09.997Z,93.96
2023-05-05T04:25:09.988Z,93.86
2023-05-05T04:26:10.007Z,93.96
2023-05-05T04:27:09.976Z,94.17
2023-05-05T04:28:10.008Z,94.48
2023-05-05T04:29:09.978Z,94.98
2023-05-05T04:30:10.105Z,95.25
2023-05-05T04:31:09.973Z,95.25
2023-05-05T04:32:09.977Z,95.15
2023-05-05T04:33:09.962Z,94.84
2023-05-05T04:34:09.974Z,94.84
2023-05-05T04:35:09.957Z,94.33
2023-05-05T04:36:09.958Z,93.71
2023-05-05T04:37:09.956Z,93.71
2023-05-05T04:38:09.949Z,94.33
2023-05-05T04:39:09.958Z,94.43
2023-05-05T04:40:10.194Z,95.00
2023-05-05T04:41:09.947Z,94.79
2023-05-05T04:42:09.940Z,94.38
2023-05-05T04:43:09.944Z,95.65
2023-05-05T04:44:09.950Z,95.41
2023-05-05T04:45:09.933Z,95.31
2023-05-05T04:46:09.979Z,94.90
2023-05-05T04:47:11.409Z,95.41
2023-05-05T04:48:09.949Z,95.31
2023-05-05T04:49:09.927Z,95.20
2023-05-05T04:50:10.141Z,95.16
2023-05-05T04:51:09.915Z,95.31
2023-05-05T04:52:09.915Z,95.10
2023-05-05T04:53:09.913Z,95.67
2023-05-05T04:54:09.909Z,94.75
2023-05-05T04:55:09.902Z,94.85
2023-05-05T04:56:09.905Z,95.06
2023-05-05T04:57:09.912Z,94.85
2023-05-05T04:58:09.916Z,95.06
2023-05-05T04:59:09.912Z,94.34
2023-05-05T05:00:10.151Z,94.14
2023-05-05T05:01:09.912Z,94.75
2023-05-05T05:02:09.994Z,94.34
2023-05-05T05:03:09.981Z,94.14
2023-05-05T05:04:09.889Z,93.73
2023-05-05T05:05:09.886Z,93.84
2023-05-05T05:06:09.885Z,93.73
2023-05-05T05:07:09.893Z,93.73
2023-05-05T05:08:09.878Z,93.84
2023-05-05T05:09:09.887Z,93.73
2023-05-05T05:10:10.004Z,94.04
2023-05-05T05:11:09.893Z,93.59
2023-05-05T05:12:09.892Z,93.69
2023-05-05T05:13:12.375Z,93.59
2023-05-05T05:14:09.866Z,93.89
2023-05-05T05:15:09.863Z,93.89
2023-05-05T05:16:09.961Z,93.69
2023-05-05T05:17:09.855Z,93.69
2023-05-05T05:18:09.854Z,94.09
2023-05-05T05:19:09.851Z,94.50
2023-05-05T05:20:10.290Z,94.87
2023-05-05T05:21:09.849Z,94.81
2023-05-05T05:22:09.861Z,94.76
2023-05-05T05:23:09.849Z,94.66
2023-05-05T05:24:09.847Z,94.87
2023-05-05T05:25:09.845Z,94.46
2023-05-05T05:26:09.836Z,94.56
2023-05-05T05:27:10.397Z,95.07
2023-05-05T05:28:10.926Z,95.37
2023-05-05T05:29:09.830Z,95.68
2023-05-05T05:30:10.055Z,95.98
2023-05-05T05:31:09.824Z,96.09
2023-05-05T05:32:09.863Z,95.78
2023-05-05T05:33:09.855Z,96.09
2023-05-05T05:34:12.618Z,95.89
2023-05-05T05:35:09.819Z,96.64
2023-05-05T05:36:09.829Z,96.54
2023-05-05T05:37:09.816Z,97.05
2023-05-05T05:38:09.808Z,97.16
2023-05-05T05:39:09.808Z,97.05
2023-05-05T05:40:10.010Z,97.31
2023-05-05T05:41:09.801Z,96.91
2023-05-05T05:42:09.804Z,97.11
2023-05-05T05:43:09.796Z,97.11
2023-05-05T05:44:09.801Z,97.11
2023-05-05T05:45:09.796Z,97.11
2023-05-05T05:46:09.866Z,97.31
2023-05-05T05:47:09.790Z,97.31
2023-05-05T05:48:09.883Z,97.11
2023-05-05T05:49:09.782Z,97.31
2023-05-05T05:50:09.999Z,97.31
2023-05-05T05:51:09.797Z,97.16
2023-05-05T05:52:09.781Z,96.96
2023-05-05T05:53:09.773Z,96.96
2023-05-05T05:54:09.774Z,96.60
2023-05-05T05:55:09.785Z,96.76
2023-05-05T05:56:09.798Z,96.66
2023-05-05T05:57:09.771Z,96.55
2023-05-05T05:58:09.763Z,96.45
2023-05-05T05:59:09.764Z,96.86
2023-05-05T06:00:10.043Z,96.86
2023-05-05T06:01:09.774Z,97.16
2023-05-05T06:02:09.821Z,96.81
2023-05-05T06:03:09.968Z,97.22
2023-05-05T06:04:09.807Z,97.02
2023-05-05T06:05:09.748Z,97.06
2023-05-05T06:06:09.745Z,96.76
2023-05-05T06:07:09.745Z,97.06
2023-05-05T06:08:09.740Z,97.42
2023-05-05T06:09:09.740Z,97.63
2023-05-05T06:10:25.681Z,97.42
2023-05-05T06:11:09.739Z,96.92
2023-05-05T06:12:09.738Z,97.17
2023-05-05T06:13:09.811Z,96.92
2023-05-05T06:14:09.730Z,97.38
2023-05-05T06:15:09.725Z,97.53
2023-05-05T06:16:09.750Z,97.38
2023-05-05T06:17:09.722Z,97.48
2023-05-05T06:18:09.768Z,97.58
2023-05-05T06:19:09.745Z,97.28
2023-05-05T06:20:09.907Z,97.28
2023-05-05T06:21:09.714Z,97.58
2023-05-05T06:22:09.723Z,97.28
2023-05-05T06:23:09.727Z,97.07
2023-05-05T06:24:09.705Z,97.44
2023-05-05T06:25:09.709Z,97.64
2023-05-05T06:26:09.704Z,98.35
2023-05-05T06:27:10.111Z,98.14
2023-05-05T06:28:09.696Z,98.25
2023-05-05T06:29:11.768Z,98.14
2023-05-05T06:30:09.893Z,98.25
2023-05-05T06:31:09.741Z,98.55
2023-05-05T06:32:09.697Z,98.45
2023-05-05T06:33:09.758Z,97.80
2023-05-05T06:34:09.685Z,97.84
2023-05-05T06:35:09.700Z,98.10
2023-05-05T06:36:09.735Z,98.10
2023-05-05T06:37:09.693Z,98.20
2023-05-05T06:38:09.699Z,97.75
2023-05-05T06:39:09.688Z,98.20
2023-05-05T06:40:09.805Z,98.05
2023-05-05T06:41:09.678Z,98.26
2023-05-05T06:42:09.673Z,97.96
2023-05-05T06:43:09.679Z,98.01
2023-05-05T06:44:09.683Z,98.01
2023-05-05T06:45:09.678Z,98.41
2023-05-05T06:46:09.664Z,97.80
2023-05-05T06:47:09.668Z,97.91
2023-05-05T06:48:09.674Z,97.86
2023-05-05T06:49:09.663Z,98.16
2023-05-05T06:50:09.899Z,98.07
2023-05-05T06:51:09.664Z,97.45
2023-05-05T06:52:09.724Z,97.25
2023-05-05T06:53:09.664Z,96.84
2023-05-05T06:54:09.659Z,96.95
2023-05-05T06:55:09.661Z,97.45
2023-05-05T06:56:09.656Z,97.05
2023-05-05T06:57:09.654Z,97.15
2023-05-05T06:58:09.646Z,97.25
2023-05-05T06:59:09.651Z,97.25
2023-05-05T07:00:09.809Z,97.41
2023-05-05T07:01:09.692Z,97.25
2023-05-05T07:02:09.666Z,97.00
2023-05-05T07:03:09.703Z,96.70
2023-05-05T07:04:09.720Z,97.41
2023-05-05T07:05:09.657Z,97.20
2023-05-05T07:06:09.640Z,97.11
2023-05-05T07:07:09.645Z,97.41
2023-05-05T07:08:09.736Z,96.80
2023-05-05T07:09:09.634Z,95.89
2023-05-05T07:10:09.947Z,95.48
2023-05-05T07:11:09.631Z,95.64
2023-05-05T07:12:09.631Z,95.43
2023-05-05T07:13:09.722Z,95.64
2023-05-05T07:14:09.633Z,95.54
2023-05-05T07:15:26.011Z,95.54
2023-05-05T07:16:09.650Z,95.34
2023-05-05T07:17:09.626Z,94.62
2023-05-05T07:18:09.658Z,94.73
2023-05-05T07:19:09.628Z,94.83
2023-05-05T07:20:10.032Z,94.62
2023-05-05T07:21:09.617Z,94.62
2023-05-05T07:22:09.616Z,94.73
2023-05-05T07:23:09.626Z,94.48
2023-05-05T07:24:09.636Z,95.19
2023-05-05T07:25:09.625Z,94.78
2023-05-05T07:26:09.612Z,94.58
2023-05-05T07:27:09.619Z,94.38
2023-05-05T07:28:09.609Z,94.98
2023-05-05T07:29:09.611Z,93.77
2023-05-05T07:30:13.186Z,93.26
2023-05-05T07:31:09.624Z,94.43
2023-05-05T07:32:10.096Z,93.83
2023-05-05T07:33:09.618Z,94.23
2023-05-05T07:34:09.598Z,94.64
2023-05-05T07:35:09.604Z,94.34
2023-05-05T07:36:09.600Z,94.13
2023-05-05T07:37:09.599Z,94.19
2023-05-05T07:38:10.933Z,94.19
2023-05-05T07:39:09.593Z,94.29
2023-05-05T07:40:10.122Z,93.38
2023-05-05T07:41:09.593Z,93.13
2023-05-05T07:42:09.587Z,92.83
2023-05-05T07:43:09.586Z,92.63
2023-05-05T07:44:09.582Z,92.63
2023-05-05T07:45:09.594Z,92.38
2023-05-05T07:46:09.676Z,92.32
2023-05-05T07:47:09.581Z,92.28
2023-05-05T07:48:09.658Z,92.28
2023-05-05T07:49:09.586Z,91.47
2023-05-05T07:50:10.015Z,91.06
2023-05-05T07:51:09.576Z,90.56
2023-05-05T07:52:09.576Z,88.33
2023-05-05T07:53:14.401Z,88.09
2023-05-05T07:54:09.571Z,88.19
2023-05-05T07:55:09.576Z,88.29
2023-05-05T07:56:09.661Z,89.00
2023-05-05T07:57:09.574Z,88.09
2023-05-05T07:58:09.571Z,88.39
2023-05-05T07:59:09.567Z,87.88
2023-05-05T08:00:09.975Z,86.98
2023-05-05T08:01:09.567Z,87.34
2023-05-05T08:02:09.580Z,85.82
2023-05-05T08:03:11.615Z,86.63
2023-05-05T08:04:09.649Z,87.64
2023-05-05T08:05:09.949Z,87.34
2023-05-05T08:06:09.567Z,86.93
2023-05-05T08:07:09.564Z,86.53
2023-05-05T08:08:09.564Z,86.13
2023-05-05T08:09:09.569Z,86.33
2023-05-05T08:10:09.563Z,87.44
2023-05-05T08:11:09.566Z,86.83
2023-05-05T08:12:09.662Z,87.04
2023-05-05T08:13:09.591Z,86.63
2023-05-05T08:14:09.555Z,86.33
2023-05-05T08:15:09.864Z,86.69
2023-05-05T08:16:09.623Z,87.19
2023-05-05T08:17:09.558Z,86.99
2023-05-05T08:18:09.557Z,86.19
2023-05-05T08:19:21.232Z,86.79
2023-05-05T08:20:09.551Z,86.90
2023-05-05T08:21:09.562Z,86.04
2023-05-05T08:22:09.554Z,85.14
2023-05-05T08:23:09.556Z,84.73
2023-05-05T08:24:09.554Z,84.29
2023-05-05T08:25:09.722Z,84.59
2023-05-05T08:26:09.554Z,84.79
2023-05-05T08:27:09.552Z,85.40
2023-05-05T08:28:09.676Z,84.85
2023-05-05T08:29:09.565Z,85.60
2023-05-05T08:30:09.558Z,85.86
2023-05-05T08:31:09.564Z,87.21
2023-05-05T08:32:10.002Z,86.16
2023-05-05T08:33:09.619Z,86.16
2023-05-05T08:34:09.554Z,86.57
2023-05-05T08:35:09.823Z,85.66
2023-05-05T08:36:09.554Z,85.25
2023-05-05T08:37:09.553Z,85.25
2023-05-05T08:38:09.558Z,84.65
2023-05-05T08:39:09.557Z,84.25
2023-05-05T08:40:09.556Z,83.34
2023-05-05T08:41:09.558Z,83.64
2023-05-05T08:42:09.555Z,84.71
2023-05-05T08:43:09.560Z,83.70
2023-05-05T08:44:09.660Z,84.35
2023-05-05T08:45:10.276Z,82.43
2023-05-05T08:46:09.565Z,82.53
2023-05-05T08:47:09.582Z,83.20
2023-05-05T08:48:09.648Z,83.20
2023-05-05T08:49:09.562Z,83.30
2023-05-05T08:50:09.570Z,84.25
2023-05-05T08:51:09.564Z,85.16
2023-05-05T08:52:09.586Z,84.85
2023-05-05T08:53:09.573Z,84.85
2023-05-05T08:54:09.558Z,84.75
2023-05-05T08:55:09.653Z,83.84
2023-05-05T08:56:09.563Z,83.34
2023-05-05T08:57:09.561Z,84.35
2023-05-05T08:58:09.560Z,85.52
2023-05-05T08:59:09.563Z,84.21
2023-05-05T09:00:09.669Z,84.11
2023-05-05T09:01:09.621Z,83.70
2023-05-05T09:02:09.596Z,84.21
2023-05-05T09:03:09.659Z,83.00
2023-05-05T09:04:09.568Z,84.55
2023-05-05T09:05:09.925Z,84.95
2023-05-05T09:06:09.563Z,86.27
2023-05-05T09:07:09.562Z,86.07
2023-05-05T09:08:09.563Z,85.76
2023-05-05T09:09:09.562Z,87.18
2023-05-05T09:10:09.561Z,86.27
2023-05-05T09:11:09.566Z,84.65
2023-05-05T09:12:09.563Z,86.33
2023-05-05T09:13:09.597Z,84.41
2023-05-05T09:14:09.561Z,84.11
2023-05-05T09:15:09.835Z,82.90
2023-05-05T09:16:09.657Z,82.53
2023-05-05T09:17:09.651Z,84.31
2023-05-05T09:18:09.658Z,84.51
2023-05-05T09:19:09.570Z,82.79
2023-05-05T09:20:09.576Z,83.30
2023-05-05T09:21:09.567Z,84.31
2023-05-05T09:22:09.571Z,85.02
2023-05-05T09:23:09.567Z,84.71
2023-05-05T09:24:09.804Z,84.31
2023-05-05T09:25:09.743Z,84.41
2023-05-05T09:26:09.571Z,85.31
2023-05-05T09:27:09.559Z,86.22
2023-05-05T09:28:09.568Z,86.07
2023-05-05T09:29:09.562Z,85.46
2023-05-05T09:30:09.560Z,86.47
2023-05-05T09:31:09.579Z,86.97
2023-05-05T09:32:09.653Z,84.85
2023-05-05T09:33:09.636Z,86.27
2023-05-05T09:34:09.559Z,86.57
2023-05-05T09:35:09.718Z,85.92
2023-05-05T09:36:09.559Z,85.82
2023-05-05T09:37:09.567Z,85.72
2023-05-05T09:38:09.559Z,85.62
2023-05-05T09:39:09.563Z,86.13
2023-05-05T09:40:09.555Z,85.11
2023-05-05T09:41:09.563Z,85.82
2023-05-05T09:42:09.556Z,85.52
2023-05-05T09:43:09.562Z,86.33
2023-05-05T09:44:09.556Z,85.22
2023-05-05T09:45:09.750Z,85.42
2023-05-05T09:46:09.603Z,86.63
2023-05-05T09:47:18.471Z,85.92
2023-05-05T09:48:09.719Z,84.75
2023-05-05T09:49:09.557Z,84.85
2023-05-05T09:50:09.683Z,85.25
2023-05-05T09:51:09.556Z,85.36
2023-05-05T09:52:09.554Z,87.54
2023-05-05T09:53:09.554Z,87.23
2023-05-05T09:54:09.553Z,85.62
2023-05-05T09:55:09.556Z,85.11
2023-05-05T09:56:09.557Z,84.61
2023-05-05T09:57:09.552Z,85.72
2023-05-05T09:58:09.607Z,85.31
2023-05-05T09:59:09.556Z,85.72
2023-05-05T10:00:09.771Z,88.45
2023-05-05T10:01:09.580Z,87.74
2023-05-05T10:02:09.556Z,85.68
2023-05-05T10:03:09.620Z,84.31
2023-05-05T10:04:09.706Z,83.30
2023-05-05T10:05:09.614Z,84.31
2023-05-05T10:06:09.567Z,85.02
2023-05-05T10:07:09.549Z,84.91
2023-05-05T10:08:09.546Z,89.15
2023-05-05T10:09:09.545Z,89.81
2023-05-05T10:10:09.884Z,90.11
2023-05-05T10:11:09.547Z,90.42
2023-05-05T10:12:09.543Z,91.93
2023-05-05T10:13:09.628Z,92.03
2023-05-05T10:14:09.548Z,91.33
2023-05-05T10:15:09.584Z,89.81
2023-05-05T10:16:09.631Z,90.62
2023-05-05T10:17:09.544Z,92.13
2023-05-05T10:18:09.593Z,90.98
2023-05-05T10:19:09.545Z,90.37
2023-05-05T10:20:09.772Z,88.90
2023-05-05T10:21:09.543Z,87.90
2023-05-05T10:22:09.542Z,85.68
2023-05-05T10:23:09.559Z,85.78
2023-05-05T10:24:09.543Z,86.69
2023-05-05T10:25:09.546Z,86.63
2023-05-05T10:26:09.539Z,86.43
2023-05-05T10:27:11.570Z,86.73
2023-05-05T10:28:09.558Z,86.43
2023-05-05T10:29:09.542Z,87.43
2023-05-05T10:30:09.835Z,87.23
2023-05-05T10:31:23.827Z,86.73
2023-05-05T10:32:33.554Z,86.53
2023-05-05T10:34:09.635Z,86.49
2023-05-05T10:35:09.556Z,84.88
2023-05-05T10:36:09.641Z,86.13
2023-05-05T10:37:09.549Z,85.38
2023-05-05T10:38:09.563Z,85.38
2023-05-05T10:39:09.565Z,84.88
2023-05-05T10:40:09.805Z,85.08
2023-05-05T10:41:09.547Z,86.49
2023-05-05T10:42:09.549Z,86.89
2023-05-05T10:43:09.553Z,86.69
2023-05-05T10:44:09.558Z,86.99
2023-05-05T10:45:09.635Z,86.99
2023-05-05T10:46:09.640Z,86.58
2023-05-05T10:47:09.548Z,86.29
2023-05-05T10:48:09.708Z,86.13
2023-05-05T10:49:11.621Z,86.73
2023-05-05T10:50:09.815Z,86.53
2023-05-05T10:51:09.549Z,86.43
2023-05-05T10:52:09.568Z,86.73
2023-05-05T10:53:09.563Z,86.73
2023-05-05T10:54:09.731Z,84.81
2023-05-05T10:55:09.545Z,85.31
2023-05-05T10:56:09.546Z,86.93
2023-05-05T10:57:09.547Z,86.13
2023-05-05T10:58:09.543Z,87.34
2023-05-05T10:59:09.547Z,87.94
2023-05-05T11:00:09.751Z,87.90
2023-05-05T11:01:09.579Z,87.13
2023-05-05T11:02:09.545Z,87.03
2023-05-05T11:03:09.646Z,86.83
2023-05-05T11:04:09.598Z,87.13
2023-05-05T11:05:09.584Z,86.43
2023-05-05T11:06:09.543Z,86.83
2023-05-05T11:07:12.690Z,84.81
2023-05-05T11:08:09.669Z,84.91
2023-05-05T11:09:09.540Z,85.52
2023-05-05T11:10:09.963Z,85.82
2023-05-05T11:11:09.540Z,85.92
2023-05-05T11:12:09.539Z,85.52
2023-05-05T11:13:09.558Z,86.02
2023-05-05T11:14:09.537Z,86.13
2023-05-05T11:15:09.539Z,86.63
2023-05-05T11:16:09.554Z,86.67
2023-05-05T11:17:09.544Z,87.38
2023-05-05T11:18:09.566Z,87.58
2023-05-05T11:19:09.616Z,87.27
2023-05-05T11:20:09.735Z,87.78
2023-05-05T11:21:09.552Z,87.98
2023-05-05T11:22:09.543Z,88.08
2023-05-05T11:23:09.537Z,87.88
2023-05-05T11:24:09.562Z,88.79
2023-05-05T11:25:09.536Z,87.92
2023-05-05T11:26:09.540Z,87.18
2023-05-05T11:27:09.530Z,87.21
2023-05-05T11:28:09.538Z,87.27
2023-05-05T11:29:09.536Z,87.32
2023-05-05T11:30:09.917Z,87.01
2023-05-05T11:31:09.556Z,87.52
2023-05-05T11:32:09.939Z,88.93
2023-05-05T11:33:09.542Z,88.93
2023-05-05T11:34:09.533Z,89.34
2023-05-05T11:35:09.530Z,90.75
2023-05-05T11:36:09.551Z,90.65
2023-05-05T11:37:09.534Z,91.96
2023-05-05T11:38:09.532Z,92.00
2023-05-05T11:39:09.527Z,92.61
2023-05-05T11:40:09.777Z,92.30
2023-05-05T11:41:09.527Z,93.12
2023-05-05T11:42:11.024Z,93.96
2023-05-05T11:43:09.527Z,94.47
2023-05-05T11:44:09.537Z,94.37
2023-05-05T11:45:09.525Z,95.18
2023-05-05T11:46:09.571Z,95.18
2023-05-05T11:47:09.526Z,95.43
2023-05-05T11:48:09.558Z,96.23
2023-05-05T11:49:09.523Z,96.54
2023-05-05T11:50:09.735Z,97.05
2023-05-05T11:51:09.522Z,97.09
2023-05-05T11:52:09.544Z,96.38
2023-05-05T11:53:09.521Z,96.18
2023-05-05T11:54:09.523Z,96.98
2023-05-05T11:55:09.521Z,96.58
2023-05-05T11:56:09.542Z,97.69
2023-05-05T11:57:09.531Z,97.69
2023-05-05T11:58:09.522Z,97.39
2023-05-05T11:59:09.557Z,97.49
2023-05-05T12:00:09.740Z,97.39
2023-05-05T12:01:09.554Z,97.39
2023-05-05T12:02:09.525Z,97.49
2023-05-05T12:03:09.573Z,97.60
2023-05-05T12:04:09.735Z,97.80
2023-05-05T12:05:09.519Z,97.80
2023-05-05T12:06:09.518Z,97.80
2023-05-05T12:07:09.532Z,97.44
2023-05-05T12:08:09.531Z,97.94
2023-05-05T12:09:09.512Z,97.44
2023-05-05T12:10:09.746Z,97.74
2023-05-05T12:11:09.517Z,97.74
2023-05-05T12:12:09.610Z,98.05
2023-05-05T12:13:09.551Z,97.64
2023-05-05T12:14:09.527Z,97.74
2023-05-05T12:15:09.680Z,97.64
2023-05-05T12:16:09.595Z,98.05
2023-05-05T12:17:09.522Z,98.25
2023-05-05T12:18:09.542Z,97.64
2023-05-05T12:19:09.507Z,98.25
2023-05-05T12:20:09.892Z,97.74
2023-05-05T12:21:09.509Z,98.14
2023-05-05T12:22:09.508Z,97.99
2023-05-05T12:23:09.509Z,97.58
2023-05-05T12:24:09.515Z,97.18
2023-05-05T12:25:09.519Z,97.73
2023-05-05T12:26:09.506Z,97.69
2023-05-05T12:27:09.512Z,99.01
2023-05-05T12:28:09.613Z,98.19
2023-05-05T12:29:09.525Z,98.34
2023-05-05T12:30:09.750Z,98.65
2023-05-05T12:31:09.598Z,98.09
2023-05-05T12:32:09.780Z,99.01
2023-05-05T12:33:09.513Z,98.90
2023-05-05T12:34:09.520Z,99.21
2023-05-05T12:35:09.533Z,99.30
2023-05-05T12:36:09.502Z,99.51
2023-05-05T12:37:09.500Z,99.30
2023-05-05T12:38:09.558Z,99.87
2023-05-05T12:39:09.511Z,99.61
2023-05-05T12:40:09.723Z,99.71
2023-05-05T12:41:09.510Z,99.87
2023-05-05T12:42:09.499Z,99.46
2023-05-05T12:43:09.495Z,99.26
2023-05-05T12:44:09.601Z,99.66
2023-05-05T12:45:09.506Z,99.77
2023-05-05T12:46:09.613Z,99.56
2023-05-05T12:47:09.504Z,99.46
2023-05-05T12:48:09.496Z,99.66
2023-05-05T12:49:09.495Z,99.46
2023-05-05T12:50:09.674Z,99.82
2023-05-05T12:51:09.493Z,99.46
2023-05-05T12:52:09.497Z,99.66
2023-05-05T12:53:09.498Z,99.46